Time;durP1;ratioP1;P1;durP2;ratioP2;P2;SDS_P1;SDS_P2;PMS_P1;PMS_P2;Temp;Humidity;BMP_temperature;BMP_pressure;BME280_temperature;BME280_humidity;BME280_pressure;Samples;Min_cycle;Max_cycle;Signal;HPM_P1;HPM_P2
2022/07/23 00:00:01;;;;;;;26.88;21.23;;;;;;;15.73;100.00;100966.47;689378;28;1051;-43
2022/07/23 00:00:21;;;;;;;28.88;21.58;;;;;;;15.70;100.00;100971.81;689430;28;1120;-43
2022/07/23 00:00:43;;;;;;;28.48;21.38;;;;;;;15.66;100.00;100968.38;690105;28;1225;-45
2022/07/23 00:01:03;;;;;;;30.08;21.35;;;;;;;15.68;100.00;100972.75;688238;28;4473;-42
2022/07/23 00:01:24;;;;;;;28.03;21.17;;;;;;;15.66;100.00;100971.00;690349;28;1336;-43
2022/07/23 00:01:44;;;;;;;26.77;22.20;;;;;;;15.66;100.00;100965.72;690744;28;1310;-42
2022/07/23 00:02:06;;;;;;;30.20;21.60;;;;;;;15.66;100.00;100973.63;690076;28;1832;-44
2022/07/23 00:02:26;;;;;;;27.30;20.98;;;;;;;15.68;100.00;100978.88;690573;28;852;-43
2022/07/23 00:02:47;;;;;;;25.73;20.80;;;;;;;15.68;100.00;100975.38;689004;28;1092;-44
2022/07/23 00:03:07;;;;;;;26.20;20.73;;;;;;;15.68;100.00;100976.22;688964;28;1152;-43
2022/07/23 00:03:27;;;;;;;26.30;20.60;;;;;;;15.67;100.00;100977.13;688780;28;1398;-43
2022/07/23 00:03:49;;;;;;;27.40;21.03;;;;;;;15.63;100.00;100981.59;691051;28;1051;-42
2022/07/23 00:04:09;;;;;;;26.95;21.80;;;;;;;15.63;100.00;100980.72;690766;28;4537;-43
2022/07/23 00:04:30;;;;;;;27.17;21.33;;;;;;;15.62;100.00;100986.91;689381;28;903;-43
2022/07/23 00:04:50;;;;;;;28.15;20.92;;;;;;;15.63;100.00;100989.50;689006;28;1262;-44
2022/07/23 00:05:11;;;;;;;28.07;21.00;;;;;;;15.62;100.00;100987.78;688469;28;1428;-42
2022/07/23 00:05:31;;;;;;;26.88;20.38;;;;;;;15.63;100.00;100996.53;689450;28;1464;-42
2022/07/23 00:05:52;;;;;;;26.03;19.93;;;;;;;15.64;100.00;100990.38;690127;28;1425;-43
2022/07/23 00:06:13;;;;;;;25.42;20.90;;;;;;;15.61;100.00;100991.31;686089;28;1045;-42
2022/07/23 00:06:35;;;;;;;25.65;21.15;;;;;;;15.56;100.00;100990.53;688919;28;1040;-43
2022/07/23 00:06:56;;;;;;;25.55;21.55;;;;;;;15.60;100.00;100991.34;686811;28;1253;-42
2022/07/23 00:07:16;;;;;;;26.13;21.43;;;;;;;15.69;100.00;100990.25;687273;28;4301;-42
2022/07/23 00:07:39;;;;;;;29.05;21.67;;;;;;;15.66;100.00;100986.81;687057;28;1115;-43
2022/07/23 00:08:00;;;;;;;27.42;21.23;;;;;;;15.63;100.00;100988.63;688436;28;1187;-42
2022/07/23 00:08:20;;;;;;;27.20;20.93;;;;;;;15.63;100.00;100984.25;690017;28;817;-45
2022/07/23 00:08:41;;;;;;;25.65;20.70;;;;;;;15.65;100.00;100984.22;688776;28;1327;-43
2022/07/23 00:09:01;;;;;;;26.77;21.00;;;;;;;15.62;100.00;100976.38;688584;28;1353;-42
2022/07/23 00:09:21;;;;;;;28.13;21.50;;;;;;;15.62;100.00;100974.59;688474;28;1178;-44
2022/07/23 00:09:42;;;;;;;27.87;21.63;;;;;;;15.60;100.00;100976.41;688760;28;1278;-44
2022/07/23 00:10:03;;;;;;;28.83;21.73;;;;;;;15.59;100.00;100982.56;685914;28;4362;-43
2022/07/23 00:10:23;;;;;;;28.40;21.50;;;;;;;15.59;100.00;100973.78;686333;28;1099;-43
2022/07/23 00:10:44;;;;;;;29.37;22.03;;;;;;;15.58;100.00;100967.66;686426;28;1136;-43
2022/07/23 00:11:04;;;;;;;28.67;22.13;;;;;;;15.62;100.00;100977.22;690548;28;1245;-42
2022/07/23 00:11:25;;;;;;;29.67;21.60;;;;;;;15.66;100.00;100976.28;690540;28;1186;-43
2022/07/23 00:11:45;;;;;;;27.38;20.90;;;;;;;15.66;100.00;100971.00;690307;28;1344;-43
2022/07/23 00:12:06;;;;;;;25.30;20.17;;;;;;;15.66;100.00;100976.28;689184;28;1834;-45
2022/07/23 00:12:26;;;;;;;25.05;19.95;;;;;;;15.65;100.00;100977.16;688928;28;1429;-43
2022/07/23 00:12:49;;;;;;;28.83;20.45;;;;;;;15.63;100.00;100978.97;689203;28;1448;-45
2022/07/23 00:13:10;;;;;;;27.83;20.37;;;;;;;15.63;100.00;100978.97;687560;28;4327;-45
2022/07/23 00:13:30;;;;;;;27.03;20.03;;;;;;;15.64;100.00;100982.47;689733;28;1591;-44
2022/07/23 00:13:50;;;;;;;30.60;20.90;;;;;;;15.61;100.00;100990.44;687219;28;1304;-42
2022/07/23 00:14:11;;;;;;;27.33;20.57;;;;;;;15.60;100.00;100981.69;688020;28;1923;-43
2022/07/23 00:14:31;;;;;;;27.55;20.45;;;;;;;15.55;100.00;100980.91;687668;28;1088;-43
2022/07/23 00:14:52;;;;;;;29.23;22.00;;;;;;;15.49;100.00;100989.78;688836;28;996;-44
2022/07/23 00:15:12;;;;;;;30.00;21.27;;;;;;;15.48;100.00;100985.41;692475;28;1292;-43
2022/07/23 00:15:33;;;;;;;29.87;20.80;;;;;;;15.50;100.00;100986.25;693249;28;1550;-45
2022/07/23 00:15:53;;;;;;;29.23;21.63;;;;;;;15.52;100.00;100988.88;691111;28;1265;-44
2022/07/23 00:16:13;;;;;;;27.57;20.47;;;;;;;15.52;100.00;100983.59;684928;28;4279;-43
2022/07/23 00:16:36;;;;;;;26.90;20.92;;;;;;;15.49;100.00;100983.63;685042;28;1166;-45
2022/07/23 00:16:59;;;;;;;29.90;22.07;;;;;;;15.49;100.00;100983.63;682803;28;1261;-43
2022/07/23 00:17:19;;;;;;;29.98;22.05;;;;;;;15.51;100.00;100981.84;684804;28;1211;-43
2022/07/23 00:17:39;;;;;;;30.30;21.87;;;;;;;15.50;100.00;100988.88;684290;28;1333;-43
2022/07/23 00:18:00;;;;;;;27.30;21.55;;;;;;;15.47;100.00;100985.47;684545;28;1104;-44
2022/07/23 00:18:20;;;;;;;26.53;21.23;;;;;;;15.47;100.00;100978.41;682721;28;1293;-43
2022/07/23 00:18:41;;;;;;;27.38;20.77;;;;;;;15.45;100.00;100982.84;684267;28;1321;-43
2022/07/23 00:19:02;;;;;;;28.87;20.67;;;;;;;15.44;100.00;100973.22;679566;28;4488;-46
2022/07/23 00:19:22;;;;;;;29.75;21.95;;;;;;;15.44;100.00;100980.25;683533;28;1374;-44
2022/07/23 00:19:43;;;;;;;27.58;21.70;;;;;;;15.45;100.00;100981.97;683733;28;1303;-43
2022/07/23 00:20:03;;;;;;;28.30;21.40;;;;;;;15.45;100.00;100977.59;683946;28;1281;-43
2022/07/23 00:20:24;;;;;;;27.73;21.63;;;;;;;15.44;100.00;100977.63;686639;28;1258;-43
2022/07/23 00:20:44;;;;;;;26.80;21.20;;;;;;;15.42;100.00;100976.75;686381;28;1439;-44
2022/07/23 00:21:05;;;;;;;29.03;21.60;;;;;;;15.43;100.00;100973.25;688967;28;1166;-45
2022/07/23 00:21:25;;;;;;;30.27;22.07;;;;;;;15.44;100.00;100978.47;692205;28;1956;-45
2022/07/23 00:21:45;;;;;;;30.13;22.07;;;;;;;15.43;100.00;100978.50;691587;28;1157;-45
2022/07/23 00:22:06;;;;;;;29.90;22.80;;;;;;;15.42;100.00;100972.34;690882;28;4533;-44
2022/07/23 00:22:27;;;;;;;29.52;22.52;;;;;;;15.42;100.00;100976.75;693002;28;1112;-43
2022/07/23 00:22:49;;;;;;;31.38;22.00;;;;;;;15.44;100.00;100969.72;692618;28;1113;-45
2022/07/23 00:23:09;;;;;;;30.48;22.80;;;;;;;15.44;100.00;100967.09;691294;28;1092;-43
2022/07/23 00:23:30;;;;;;;30.07;23.30;;;;;;;15.43;100.00;100967.97;688267;28;1398;-44
2022/07/23 00:23:51;;;;;;;31.38;22.60;;;;;;;15.42;100.00;100975.00;690113;28;1276;-43
2022/07/23 00:24:11;;;;;;;30.10;22.63;;;;;;;15.41;100.00;100975.03;690604;28;1380;-47
2022/07/23 00:24:31;;;;;;;30.10;22.30;;;;;;;15.39;100.00;100979.47;689554;28;1441;-43
2022/07/23 00:24:52;;;;;;;33.03;23.52;;;;;;;15.35;100.00;100969.88;689515;28;1218;-44
2022/07/23 00:25:12;;;;;;;32.17;23.40;;;;;;;15.36;100.00;100969.84;689841;28;4413;-45
2022/07/23 00:25:33;;;;;;;29.43;22.27;;;;;;;15.38;100.00;100975.09;690569;28;1478;-43
2022/07/23 00:25:53;;;;;;;27.80;21.47;;;;;;;15.39;100.00;100971.56;687226;28;1550;-43
2022/07/23 00:26:14;;;;;;;30.13;22.03;;;;;;;15.41;100.00;100972.38;688190;28;946;-43
2022/07/23 00:26:34;;;;;;;30.52;22.13;;;;;;;15.41;100.00;100969.75;685988;28;1420;-43
2022/07/23 00:26:54;;;;;;;28.83;22.50;;;;;;;15.40;100.00;100974.16;683134;28;1027;-46
2022/07/23 00:27:15;;;;;;;30.63;23.38;;;;;;;15.39;100.00;100976.84;681777;28;1269;-44
2022/07/23 00:27:35;;;;;;;30.93;22.67;;;;;;;15.39;100.00;100972.41;681596;28;1163;-44
2022/07/23 00:27:57;;;;;;;30.00;21.85;;;;;;;15.42;100.00;100979.41;686292;28;1077;-46
2022/07/23 00:28:18;;;;;;;30.90;22.08;;;;;;;15.43;100.00;100983.78;685631;28;5016;-43
2022/07/23 00:28:38;;;;;;;33.40;23.75;;;;;;;15.43;100.00;100978.50;687279;28;1104;-43
2022/07/23 00:28:59;;;;;;;32.90;23.60;;;;;;;15.41;100.00;100981.19;688873;28;1326;-44
2022/07/23 00:29:19;;;;;;;30.67;23.17;;;;;;;15.36;100.00;100984.81;686713;28;1132;-44
2022/07/23 00:29:40;;;;;;;33.70;23.42;;;;;;;15.35;100.00;100980.44;688843;28;1348;-44
2022/07/23 00:30:00;;;;;;;33.10;24.10;;;;;;;15.32;100.00;100982.19;685457;28;2257;-43
2022/07/23 00:30:20;;;;;;;33.40;24.52;;;;;;;15.32;100.00;100981.34;685823;28;1076;-45
2022/07/23 00:30:41;;;;;;;32.30;23.10;;;;;;;15.33;100.00;100983.09;683785;28;1239;-43
2022/07/23 00:31:02;;;;;;;30.63;22.73;;;;;;;15.35;100.00;100986.56;683466;28;4282;-46
2022/07/23 00:31:22;;;;;;;33.27;23.27;;;;;;;15.35;100.00;100986.56;685033;28;1240;-45
2022/07/23 00:31:43;;;;;;;33.50;23.10;;;;;;;15.33;100.00;100981.31;681373;28;1127;-44
2022/07/23 00:32:04;;;;;;;29.92;22.13;;;;;;;15.34;100.00;100984.84;683438;28;1335;-43
2022/07/23 00:32:24;;;;;;;30.20;22.70;;;;;;;15.37;100.00;100981.25;683728;28;1290;-46
2022/07/23 00:32:53;;;;;;;28.93;22.30;;;;;;;15.40;100.00;100983.84;686729;28;1266;-43
2022/07/23 00:33:13;;;;;;;29.45;21.42;;;;;;;15.40;100.00;100982.06;688112;28;1254;-45
2022/07/23 00:33:34;;;;;;;30.90;22.40;;;;;;;15.40;100.00;100981.22;686558;28;1202;-43
2022/07/23 00:33:57;;;;;;;30.10;22.47;;;;;;;15.38;100.00;100983.00;685949;28;1345;-44
2022/07/23 00:34:18;;;;;;;31.63;23.10;;;;;;;15.37;100.00;100983.88;687703;28;4874;-44
2022/07/23 00:34:38;;;;;;;33.03;23.17;;;;;;;15.37;100.00;100979.50;686320;28;1349;-46
2022/07/23 00:34:59;;;;;;;31.98;23.33;;;;;;;15.37;100.00;100981.25;687071;28;1116;-44
2022/07/23 00:35:21;;;;;;;32.60;23.57;;;;;;;15.37;100.00;100978.63;687046;28;1328;-45
2022/07/23 00:35:42;;;;;;;32.78;23.85;;;;;;;15.35;100.00;100978.66;686132;28;1370;-44
2022/07/23 00:36:03;;;;;;;34.67;23.60;;;;;;;15.35;100.00;100981.28;686142;28;1218;-44
2022/07/23 00:36:23;;;;;;;32.65;23.65;;;;;;;15.37;100.00;100984.78;684061;28;1294;-43
2022/07/23 00:36:44;;;;;;;31.00;23.73;;;;;;;15.37;100.00;100975.97;686180;28;1315;-45
2022/07/23 00:37:04;;;;;;;33.27;23.93;;;;;;;15.36;100.00;100974.28;685880;28;4373;-44
2022/07/23 00:37:24;;;;;;;33.45;23.45;;;;;;;15.35;100.00;100977.78;687797;28;1239;-43
2022/07/23 00:37:45;;;;;;;31.63;22.63;;;;;;;15.35;100.00;100976.00;687422;28;1300;-43
2022/07/23 00:38:05;;;;;;;30.57;22.53;;;;;;;15.35;100.00;100975.16;685753;28;1265;-44
2022/07/23 00:38:26;;;;;;;31.90;23.02;;;;;;;15.33;100.00;100973.41;686292;28;1148;-44
2022/07/23 00:38:46;;;;;;;30.93;23.33;;;;;;;15.33;100.00;100975.19;687698;28;4990;-43
2022/07/23 00:39:07;;;;;;;31.38;23.35;;;;;;;15.31;100.00;100972.59;683557;28;1314;-44
2022/07/23 00:39:27;;;;;;;33.80;23.77;;;;;;;15.31;100.00;100969.97;684288;28;1365;-45
2022/07/23 00:39:47;;;;;;;34.25;23.33;;;;;;;15.28;100.00;100971.78;687909;28;1274;-44
2022/07/23 00:40:10;;;;;;;30.90;22.20;;;;;;;15.30;100.00;100973.47;685915;28;4437;-45
2022/07/23 00:40:31;;;;;;;31.42;22.17;;;;;;;15.31;100.00;100974.34;686697;28;1324;-44
2022/07/23 00:40:51;;;;;;;31.98;22.50;;;;;;;15.31;100.00;100972.59;688033;28;1298;-44
2022/07/23 00:41:11;;;;;;;31.20;21.80;;;;;;;15.32;100.00;100970.81;688070;28;1295;-46
2022/07/23 00:41:32;;;;;;;33.20;22.57;;;;;;;15.28;100.00;100975.25;687765;28;1448;-43
2022/07/23 00:41:52;;;;;;;33.47;23.70;;;;;;;15.28;100.00;100983.16;686758;28;1131;-44
2022/07/23 00:42:13;;;;;;;32.63;23.80;;;;;;;15.29;100.00;100982.28;686005;28;1598;-43
2022/07/23 00:42:33;;;;;;;32.17;23.45;;;;;;;15.31;100.00;100975.22;689637;28;1250;-43
2022/07/23 00:42:54;;;;;;;32.60;23.60;;;;;;;15.30;100.00;100973.47;691280;28;1377;-46
2022/07/23 00:43:14;;;;;;;32.42;23.38;;;;;;;15.27;100.00;100975.28;685731;28;4524;-45
2022/07/23 00:43:35;;;;;;;32.90;23.43;;;;;;;15.27;100.00;100976.19;688451;28;1128;-43
2022/07/23 00:43:55;;;;;;;34.67;23.85;;;;;;;15.27;100.00;100983.19;684503;28;1218;-43
2022/07/23 00:44:15;;;;;;;34.33;23.43;;;;;;;15.26;100.00;100976.22;683232;28;1112;-43
2022/07/23 00:44:36;;;;;;;33.10;23.35;;;;;;;15.24;100.00;100970.94;684793;28;1340;-45
2022/07/23 00:44:56;;;;;;;33.17;23.37;;;;;;;15.24;100.00;100978.00;685121;28;1158;-43
2022/07/23 00:45:17;;;;;;;36.78;24.02;;;;;;;15.24;100.00;100970.94;685573;28;1293;-43
2022/07/23 00:45:38;;;;;;;37.17;24.13;;;;;;;15.23;100.00;100971.88;688601;28;1135;-44
2022/07/23 00:45:58;;;;;;;35.33;23.23;;;;;;;15.24;100.00;100975.34;688399;28;4583;-43
2022/07/23 00:46:22;;;;;;;34.50;23.23;;;;;;;15.24;100.00;100972.72;687459;28;1393;-44
2022/07/23 00:46:46;;;;;;;33.53;23.33;;;;;;;15.23;100.00;100973.63;689835;28;1582;-43
2022/07/23 00:47:07;;;;;;;35.03;24.08;;;;;;;15.23;100.00;100970.97;687728;28;1216;-44
2022/07/23 00:47:27;;;;;;;34.43;23.43;;;;;;;15.24;100.00;100964.81;688769;28;1431;-44
2022/07/23 00:47:48;;;;;;;36.38;23.83;;;;;;;15.23;100.00;100973.63;688845;28;1214;-45
2022/07/23 00:48:08;;;;;;;36.37;24.03;;;;;;;15.22;100.00;100975.41;687157;28;1207;-43
2022/07/23 00:48:29;;;;;;;33.83;24.15;;;;;;;15.23;100.00;100976.25;685640;28;1242;-44
2022/07/23 00:48:49;;;;;;;32.23;22.63;;;;;;;15.24;100.00;100973.59;686310;28;1346;-43
2022/07/23 00:49:10;;;;;;;32.20;23.20;;;;;;;15.27;100.00;100973.53;684998;28;4252;-43
2022/07/23 00:49:30;;;;;;;31.00;23.37;;;;;;;15.26;100.00;100971.81;686351;28;1223;-45
2022/07/23 00:49:50;;;;;;;30.70;23.23;;;;;;;15.27;100.00;100973.53;686824;28;1294;-44
2022/07/23 00:50:11;;;;;;;33.07;23.57;;;;;;;15.27;100.00;100976.19;686262;28;1291;-44
2022/07/23 00:50:32;;;;;;;33.80;23.60;;;;;;;15.27;100.00;100973.53;688149;28;1646;-43
2022/07/23 00:50:52;;;;;;;33.40;23.65;;;;;;;15.28;100.00;100972.63;688084;28;1236;-43
2022/07/23 00:51:16;;;;;;;33.53;22.93;;;;;;;15.31;100.00;100979.59;686722;28;1442;-44
2022/07/23 00:51:36;;;;;;;33.92;23.40;;;;;;;15.31;100.00;100976.97;686765;28;1172;-45
2022/07/23 00:52:00;;;;;;;35.10;23.83;;;;;;;15.30;100.00;100972.63;683517;28;1321;-44
2022/07/23 00:52:21;;;;;;;34.95;24.00;;;;;;;15.28;100.00;100977.91;682749;28;7506;-44
2022/07/23 00:52:41;;;;;;;31.50;23.10;;;;;;;15.33;100.00;100975.19;680830;28;1172;-43
2022/07/23 00:53:02;;;;;;;30.27;22.90;;;;;;;15.35;100.00;100981.28;680956;28;1088;-44
2022/07/23 00:53:23;;;;;;;33.03;23.33;;;;;;;15.33;100.00;100981.31;683081;28;1351;-43
2022/07/23 00:53:44;;;;;;;32.90;23.33;;;;;;;15.35;100.00;100969.88;683081;28;1401;-44
2022/07/23 00:54:04;;;;;;;29.65;22.70;;;;;;;15.36;100.00;100972.50;684215;28;2053;-43
2022/07/23 00:54:26;;;;;;;31.33;22.83;;;;;;;15.35;100.00;100976.00;683184;28;1131;-43
2022/07/23 00:54:47;;;;;;;32.17;23.70;;;;;;;15.37;100.00;100973.34;682495;28;2090;-43
2022/07/23 00:55:10;;;;;;;31.25;22.60;;;;;;;15.39;100.00;100968.94;683168;28;4516;-44
2022/07/23 00:55:31;;;;;;;31.05;22.77;;;;;;;15.40;100.00;100970.69;683143;28;1445;-46
2022/07/23 00:55:51;;;;;;;30.73;22.50;;;;;;;15.38;100.00;100975.97;683836;28;1773;-44
2022/07/23 00:56:12;;;;;;;33.30;22.88;;;;;;;15.37;100.00;100973.34;686493;28;1892;-43
2022/07/23 00:56:32;;;;;;;33.37;22.77;;;;;;;15.36;100.00;100971.63;685843;28;1588;-43
2022/07/23 00:56:54;;;;;;;33.93;23.17;;;;;;;15.34;100.00;100976.94;686788;28;1244;-43
2022/07/23 00:57:15;;;;;;;31.38;22.83;;;;;;;15.31;100.00;100975.22;687381;28;1386;-44
2022/07/23 00:57:36;;;;;;;31.67;22.73;;;;;;;15.30;100.00;100976.13;683735;28;1333;-43
2022/07/23 00:57:57;;;;;;;35.70;23.65;;;;;;;15.32;100.00;100970.81;685569;28;1168;-45
2022/07/23 00:58:19;;;;;;;33.17;23.50;;;;;;;15.33;100.00;100977.81;686052;28;4904;-44
2022/07/23 00:58:42;;;;;;;34.85;23.90;;;;;;;15.31;100.00;100975.22;686555;28;1265;-44
2022/07/23 00:59:03;;;;;;;32.78;23.27;;;;;;;15.31;100.00;100979.59;686427;28;1321;-43
2022/07/23 00:59:23;;;;;;;33.60;23.23;;;;;;;15.30;100.00;100970.00;684758;28;1239;-43
2022/07/23 00:59:43;;;;;;;32.88;23.70;;;;;;;15.30;100.00;100972.63;684581;28;1138;-43
2022/07/23 01:00:06;;;;;;;35.07;24.43;;;;;;;15.29;100.00;100977.00;684173;28;1373;-43
2022/07/23 01:00:27;;;;;;;34.20;23.58;;;;;;;15.30;100.00;100976.13;682052;28;1982;-44
2022/07/23 01:00:47;;;;;;;35.63;23.15;;;;;;;15.28;100.00;100975.25;680527;28;1299;-45
2022/07/23 01:01:09;;;;;;;34.43;23.40;;;;;;;15.30;100.00;100968.22;678958;28;4633;-44
2022/07/23 01:01:29;;;;;;;34.47;24.25;;;;;;;15.30;100.00;100972.63;679838;28;1354;-44
2022/07/23 01:01:50;;;;;;;33.97;24.43;;;;;;;15.28;100.00;100967.34;683235;28;1409;-44
2022/07/23 01:02:10;;;;;;;32.90;24.63;;;;;;;15.30;100.00;100967.34;683399;28;1239;-46
2022/07/23 01:02:30;;;;;;;37.60;25.27;;;;;;;15.32;100.00;100966.41;685377;28;1397;-46
2022/07/23 01:02:51;;;;;;;35.55;24.35;;;;;;;15.33;100.00;100968.16;684544;28;1262;-44
2022/07/23 01:03:11;;;;;;;33.40;23.40;;;;;;;15.33;100.00;100962.88;685144;28;1405;-43
2022/07/23 01:03:32;;;;;;;32.70;23.60;;;;;;;15.35;100.00;100969.88;684869;28;1289;-44
2022/07/23 01:03:52;;;;;;;35.73;24.53;;;;;;;15.34;100.00;100963.75;680759;28;1425;-49
2022/07/23 01:04:14;;;;;;;35.13;24.20;;;;;;;15.35;100.00;100962.00;677203;28;4387;-43
2022/07/23 01:04:35;;;;;;;35.60;24.40;;;;;;;15.35;100.00;100959.34;675706;29;1960;-43
2022/07/23 01:04:55;;;;;;;32.13;23.27;;;;;;;15.36;100.00;100963.72;678689;29;1257;-45
2022/07/23 01:05:17;;;;;;;32.13;23.08;;;;;;;15.33;100.00;100957.59;681858;28;1207;-43
2022/07/23 01:05:38;;;;;;;31.98;23.50;;;;;;;15.33;100.00;100962.88;675479;29;1174;-44
2022/07/23 01:05:58;;;;;;;32.27;23.23;;;;;;;15.35;100.00;100959.34;677737;29;1264;-43
2022/07/23 01:06:19;;;;;;;32.80;23.05;;;;;;;15.36;100.00;100956.69;680533;28;1479;-43
2022/07/23 01:06:39;;;;;;;31.10;22.67;;;;;;;15.38;100.00;100960.19;684072;28;1275;-44
2022/07/23 01:07:01;;;;;;;32.07;23.03;;;;;;;15.40;100.00;100963.63;681843;28;4554;-44
2022/07/23 01:07:21;;;;;;;31.92;23.40;;;;;;;15.41;100.00;100960.09;679584;28;1188;-43
2022/07/23 01:07:42;;;;;;;33.17;23.05;;;;;;;15.41;100.00;100964.47;680811;28;1298;-43
2022/07/23 01:08:03;;;;;;;30.95;22.20;;;;;;;15.42;100.00;100961.81;682535;28;1365;-44
2022/07/23 01:08:24;;;;;;;32.47;23.15;;;;;;;15.41;100.00;100953.94;683221;28;1325;-43
2022/07/23 01:08:45;;;;;;;32.50;23.02;;;;;;;15.41;100.00;100960.09;684335;28;1315;-45
2022/07/23 01:09:06;;;;;;;31.08;22.17;;;;;;;15.43;100.00;100967.97;681543;28;1168;-44
2022/07/23 01:09:27;;;;;;;33.08;22.70;;;;;;;15.42;100.00;100961.81;686155;28;1230;-44
2022/07/23 01:09:49;;;;;;;32.03;22.10;;;;;;;15.42;100.00;100959.19;682833;28;1319;-46
2022/07/23 01:10:42;;;;;;;33.30;22.73;;;;;;;15.40;100.00;100963.63;683719;28;4390;-45
2022/07/23 01:10:56;;;;;;;32.10;22.38;;;;;;;15.40;100.00;100962.78;680599;28;1705;-43
2022/07/23 01:11:18;;;;;;;31.73;22.40;;;;;;;15.41;100.00;100959.22;686343;28;1494;-45
2022/07/23 01:11:39;;;;;;;33.35;22.60;;;;;;;15.41;100.00;100949.56;685842;28;1420;-44
2022/07/23 01:12:01;;;;;;;31.85;22.30;;;;;;;15.42;100.00;100960.97;686648;28;1244;-45
2022/07/23 01:12:21;;;;;;;29.43;21.73;;;;;;;15.43;100.00;100954.81;687429;28;1092;-44
2022/07/23 01:12:42;;;;;;;29.40;21.30;;;;;;;15.42;100.00;100958.31;685934;28;3817;-44
2022/07/23 01:13:08;;;;;;;30.50;21.60;;;;;;;15.44;100.00;100953.91;683987;28;4436;-44
2022/07/23 01:13:28;;;;;;;29.00;21.67;;;;;;;15.44;100.00;100953.91;684877;28;1413;-43
2022/07/23 01:13:49;;;;;;;29.15;21.38;;;;;;;15.46;100.00;100952.09;685536;28;1187;-43
2022/07/23 01:14:18;;;;;;;29.98;21.35;;;;;;;15.47;100.00;100954.69;683937;28;1973;-43
2022/07/23 01:14:39;;;;;;;32.13;22.50;;;;;;;15.47;100.00;100956.47;684278;28;1198;-43
2022/07/23 01:14:59;;;;;;;30.47;22.23;;;;;;;15.46;100.00;100955.59;682691;28;1393;-43
2022/07/23 01:15:23;;;;;;;29.58;21.35;;;;;;;15.47;100.00;100961.75;684077;28;1258;-43
2022/07/23 01:15:43;;;;;;;29.10;20.85;;;;;;;15.47;100.00;100956.47;684479;28;1262;-43
2022/07/23 01:16:04;;;;;;;27.90;21.40;;;;;;;15.44;100.00;100960.03;686125;28;4432;-44
2022/07/23 01:16:24;;;;;;;28.75;21.45;;;;;;;15.46;100.00;100962.63;687495;28;1164;-45
2022/07/23 01:16:47;;;;;;;28.17;21.27;;;;;;;15.46;100.00;100957.38;688228;28;1200;-44
2022/07/23 01:17:07;;;;;;;28.77;21.30;;;;;;;15.46;100.00;100952.09;686661;28;1504;-44
2022/07/23 01:17:28;;;;;;;30.70;20.80;;;;;;;15.47;100.00;100959.97;687265;28;1446;-43
2022/07/23 01:17:48;;;;;;;29.33;20.73;;;;;;;15.47;100.00;100961.75;686492;28;1415;-43
2022/07/23 01:18:10;;;;;;;26.55;19.85;;;;;;;15.48;100.00;100960.84;686528;28;1235;-43
2022/07/23 01:18:32;;;;;;;26.70;19.65;;;;;;;15.48;100.00;100963.50;688909;28;1335;-45
2022/07/23 01:18:52;;;;;;;27.10;20.63;;;;;;;15.48;100.00;100959.06;683810;28;1435;-43
2022/07/23 01:19:13;;;;;;;26.83;20.27;;;;;;;15.47;100.00;100957.31;680842;28;4371;-43
2022/07/23 01:19:34;;;;;;;27.67;20.55;;;;;;;15.45;100.00;100967.03;684559;28;1395;-45
2022/07/23 01:19:54;;;;;;;29.93;21.47;;;;;;;15.43;100.00;100957.44;683747;28;1547;-44
2022/07/23 01:20:15;;;;;;;29.53;21.77;;;;;;;15.40;100.00;100962.78;683702;28;1449;-47
2022/07/23 01:20:36;;;;;;;30.95;21.88;;;;;;;15.40;100.00;100954.88;683520;28;1668;-45
2022/07/23 01:20:56;;;;;;;30.37;21.30;;;;;;;15.40;100.00;100961.00;685822;28;1295;-44
2022/07/23 01:21:18;;;;;;;28.42;19.90;;;;;;;15.41;100.00;100961.84;686316;28;1128;-44
2022/07/23 01:21:41;;;;;;;26.13;20.13;;;;;;;15.42;100.00;100966.22;690007;28;1410;-43
2022/07/23 01:22:03;;;;;;;29.00;20.75;;;;;;;15.40;100.00;100965.41;688890;28;4308;-43
2022/07/23 01:22:29;;;;;;;29.13;21.20;;;;;;;15.38;100.00;100968.06;687795;28;1283;-44
2022/07/23 01:22:50;;;;;;;28.60;20.20;;;;;;;15.36;100.00;100964.59;687542;28;1556;-43
2022/07/23 01:23:11;;;;;;;27.33;20.27;;;;;;;15.36;100.00;100961.09;685287;28;1389;-43
2022/07/23 01:23:36;;;;;;;28.98;20.65;;;;;;;15.34;100.00;100961.13;682142;28;1701;-44
2022/07/23 01:23:56;;;;;;;28.33;19.83;;;;;;;15.33;100.00;100957.59;684165;28;1342;-45
2022/07/23 01:24:21;;;;;;;27.67;19.90;;;;;;;15.36;100.00;100958.47;682256;28;1141;-46
2022/07/23 01:24:50;;;;;;;28.15;20.60;;;;;;;15.28;100.00;100967.34;684826;28;1560;-44
2022/07/23 01:25:15;;;;;;;28.85;20.58;;;;;;;15.25;100.00;100963.94;683126;28;4568;-43
2022/07/23 01:25:49;;;;;;;27.08;20.50;;;;;;;15.23;100.00;100965.72;685640;28;1813;-43
2022/07/23 01:26:10;;;;;;;29.40;20.38;;;;;;;15.22;100.00;100962.22;686291;28;1414;-44
2022/07/23 01:26:31;;;;;;;29.05;20.08;;;;;;;15.22;100.00;100969.28;684307;28;1487;-43
2022/07/23 01:26:59;;;;;;;30.40;20.70;;;;;;;15.20;100.00;100963.16;683334;28;1552;-43
2022/07/23 01:27:19;;;;;;;27.45;20.15;;;;;;;15.19;100.00;100971.94;685035;28;1279;-43
2022/07/23 01:27:42;;;;;;;28.52;20.77;;;;;;;15.20;100.00;100963.16;682973;28;1331;-45
2022/07/23 01:28:03;;;;;;;26.92;20.45;;;;;;;15.19;100.00;100964.94;683083;28;4426;-44
2022/07/23 01:28:23;;;;;;;27.90;20.15;;;;;;;15.19;100.00;100964.03;684877;28;1236;-45
2022/07/23 01:28:44;;;;;;;29.35;20.80;;;;;;;15.20;100.00;100963.16;680577;28;1553;-44
2022/07/23 01:29:06;;;;;;;31.85;21.35;;;;;;;15.18;100.00;100968.44;680778;28;1412;-43
2022/07/23 01:29:26;;;;;;;30.90;21.35;;;;;;;15.17;100.00;100961.44;680315;28;1363;-45
2022/07/23 01:29:48;;;;;;;31.17;20.77;;;;;;;15.16;100.00;100967.63;683993;28;1263;-43
2022/07/23 01:30:13;;;;;;;30.38;20.98;;;;;;;15.17;100.00;100960.59;678347;28;1281;-44
2022/07/23 01:30:33;;;;;;;29.85;21.10;;;;;;;15.16;100.00;100967.63;684532;28;852;-44
2022/07/23 01:30:58;;;;;;;30.50;21.45;;;;;;;15.16;100.00;100959.72;682235;28;4928;-45
2022/07/23 01:31:19;;;;;;;32.67;21.47;;;;;;;15.15;100.00;100965.88;684165;28;1432;-43
2022/07/23 01:31:40;;;;;;;29.85;20.70;;;;;;;15.18;100.00;100963.19;682758;28;1229;-46
2022/07/23 01:32:00;;;;;;;28.92;20.50;;;;;;;15.18;100.00;100964.97;684654;28;1514;-45
2022/07/23 01:32:20;;;;;;;30.00;21.17;;;;;;;15.18;100.00;100962.31;682595;28;1251;-46
2022/07/23 01:32:41;;;;;;;29.50;20.75;;;;;;;15.17;100.00;100961.44;683037;28;1080;-43
2022/07/23 01:33:01;;;;;;;29.17;20.70;;;;;;;15.15;100.00;100965.88;685698;28;833;-43
2022/07/23 01:33:22;;;;;;;29.50;20.55;;;;;;;15.14;100.00;100964.13;686561;28;2363;-45
2022/07/23 01:33:42;;;;;;;29.07;20.40;;;;;;;15.14;100.00;100966.78;685439;28;918;-45
2022/07/23 01:34:04;;;;;;;30.42;20.65;;;;;;;15.13;100.00;100970.28;686285;28;4892;-43
2022/07/23 01:34:24;;;;;;;32.38;20.73;;;;;;;15.12;100.00;100971.22;685759;28;1273;-45
2022/07/23 01:34:45;;;;;;;30.73;20.83;;;;;;;15.11;100.00;100970.31;686140;28;1471;-44
2022/07/23 01:35:07;;;;;;;29.50;19.95;;;;;;;15.10;100.00;100973.84;685441;28;1750;-44
2022/07/23 01:35:28;;;;;;;30.60;20.65;;;;;;;15.11;100.00;100972.09;686180;28;1244;-44
2022/07/23 01:35:52;;;;;;;29.55;21.08;;;;;;;15.09;100.00;100968.59;683561;28;1220;-44
2022/07/23 01:36:17;;;;;;;29.65;20.80;;;;;;;15.07;100.00;100975.69;681007;28;1319;-44
2022/07/23 01:36:37;;;;;;;31.00;20.38;;;;;;;15.08;100.00;100970.38;680679;28;1299;-44
2022/07/23 01:36:58;;;;;;;32.57;20.27;;;;;;;15.07;100.00;100970.41;681642;28;4435;-44
2022/07/23 01:37:18;;;;;;;31.98;20.15;;;;;;;15.07;100.00;100973.91;678284;28;1484;-45